Amavisti — V2CR5 — position and weather

sailwx.info

Track history (hours):
 
Tides and Currents Weather Stations Pressure Air Temp Water Temp Dewpoint Dewpoint Depression Visibility Wind Speed Wind Dir Waves Ship Positions

Amavisti

Last reported at 2017-Feb-08 21:32 UTC. Time now 2017-Feb-22 20:04 UTC.
Position N 14°40' W 017°23'.
Warning: this ship's position is 13 days out of date.

Length 116 m; draft 6 m.

Type: Cargo ship. MMSI: 305086000.

Date/timePositionNaut miles runAvg speedWind from/ knotsBaromVisibWave heightAir tempDewpointWater temp
2017-Feb-08 21:32N 14°40' W 017°23'2 1.7
2017-Feb-08 20:24N 14°40' W 017°25'0 0.0
2017-Feb-08 18:30N 14°40' W 017°25'0 0.0
2017-Feb-08 17:30N 14°40' W 017°25'0 0.0
2017-Feb-08 16:30N 14°40' W 017°25'0 0.0
2017-Feb-08 15:27N 14°40' W 017°25'0 0.0
2017-Feb-08 14:30N 14°40' W 017°25'0 0.0
2017-Feb-08 13:12N 14°40' W 017°25'0 0.0
2017-Feb-08 12:30N 14°40' W 017°25'0 0.0
2017-Feb-08 11:18N 14°40' W 017°25'0 0.0
2017-Feb-08 10:33N 14°40' W 017°25'0 0.0
2017-Feb-08 09:33N 14°40' W 017°25'0 0.0
2017-Feb-08 08:33N 14°40' W 017°25'0 0.0
2017-Feb-08 07:30N 14°40' W 017°25'0 0.0
2017-Feb-08 06:33N 14°40' W 017°25'0 0.0
2017-Feb-08 05:30N 14°40' W 017°25'0 0.0
2017-Feb-08 04:24N 14°40' W 017°25'0 0.0
2017-Feb-08 03:27N 14°40' W 017°25'0 0.0
2017-Feb-08 02:27N 14°40' W 017°25'0 0.0
2017-Feb-08 00:18N 14°40' W 017°25'0 0.0
2017-Feb-07 23:30N 14°40' W 017°25'0 0.0
2017-Feb-07 22:30N 14°40' W 017°25'0 0.0
2017-Feb-07 21:30N 14°40' W 017°25'0 0.0
2017-Feb-07 20:30N 14°40' W 017°25'0 0.0
2017-Feb-07 19:30N 14°40' W 017°25'0 0.0
2017-Feb-07 18:30N 14°40' W 017°25'0 0.0
2017-Feb-07 17:33N 14°40' W 017°25'0 0.0
2017-Feb-07 16:18N 14°40' W 017°25'0 0.0
2017-Feb-07 15:27N 14°40' W 017°25'0 0.0
2017-Feb-07 14:33N 14°40' W 017°25'0 0.0
2017-Feb-07 13:33N 14°40' W 017°25'0 0.0
2017-Feb-07 12:33N 14°40' W 017°25'0 0.0
2017-Feb-07 11:24N 14°40' W 017°25'0 0.0
2017-Feb-07 10:27N 14°40' W 017°25'0 0.0
2017-Feb-07 05:30N 14°40' W 017°25'0 0.0
2017-Feb-07 03:18N 14°40' W 017°25'0 0.0
2017-Feb-06 22:24N 14°40' W 017°25'0 0.0
2017-Feb-06 19:24N 14°40' W 017°25'0 0.0
2017-Feb-06 18:24N 14°40' W 017°25'0 0.0
2017-Feb-06 17:30N 14°40' W 017°25'0 0.0
2017-Feb-06 16:30N 14°40' W 017°25'0 0.0
2017-Feb-06 15:30N 14°40' W 017°25'0 0.0
2017-Feb-06 14:30N 14°40' W 017°25'0 0.0
2017-Feb-06 13:33N 14°40' W 017°25'0 0.0
2017-Feb-06 12:30N 14°40' W 017°25'0 0.0
2017-Feb-06 11:30N 14°40' W 017°25'0 0.0
2017-Feb-06 10:33N 14°40' W 017°25'0 0.0
2017-Feb-06 09:33N 14°40' W 017°25'0 0.0
2017-Feb-06 08:30N 14°40' W 017°25'0 0.0
2017-Feb-06 01:12N 14°40' W 017°25'0 0.0
2017-Feb-06 00:15N 14°40' W 017°25'0 0.0
2017-Feb-05 23:30N 14°40' W 017°25'0 0.0
2017-Feb-05 19:18N 14°40' W 017°25'0 0.0
2017-Feb-05 18:24N 14°40' W 017°25'0 0.0
2017-Feb-05 17:33N 14°40' W 017°25'0 0.0
2017-Feb-05 16:33N 14°40' W 017°25'0 0.0
2017-Feb-05 15:24N 14°40' W 017°25'0 0.0
2017-Feb-05 14:30N 14°40' W 017°25'0 0.0
2017-Feb-05 13:24N 14°40' W 017°25'0 0.0
2017-Feb-05 12:30N 14°40' W 017°25'0 0.0
2017-Feb-05 10:32N 14°40' W 017°25'4 2.8
2017-Feb-05 09:14N 14°37' W 017°25'22 7.3
2017-Feb-05 06:17N 14°56' W 017°35'  
2017-Feb-01 21:25N 27°49' W 015°20'910.2
2017-Feb-01 20:33N 27°57' W 015°19'10 9.9
2017-Feb-01 19:33N 28°06' W 015°23'3 2.7
2017-Feb-01 18:33N 28°08' W 015°25'0 0.0
2017-Feb-01 17:33N 28°08' W 015°25'0 0.0
2017-Feb-01 16:33N 28°08' W 015°25'0 0.0
2017-Feb-01 15:33N 28°08' W 015°25'0 0.0
2017-Feb-01 14:24N 28°08' W 015°25'0 0.0
2017-Feb-01 12:24N 28°08' W 015°25'0 0.0
2017-Feb-01 11:27N 28°08' W 015°25'0 0.0
2017-Feb-01 10:27N 28°08' W 015°25'0 0.0
2017-Feb-01 09:27N 28°08' W 015°25'0 0.1
2017-Feb-01 08:33N 28°08' W 015°25'4 4.1
2017-Feb-01 07:33N 28°09' W 015°21'7 7.5
2017-Feb-01 06:33N 28°14' W 015°15'7 7.3
2017-Feb-01 05:33N 28°19' W 015°08'7 7.4
2017-Feb-01 04:33N 28°25' W 015°03'7 7.3
2017-Feb-01 03:33N 28°30' W 014°57'7 7.4
2017-Feb-01 02:33N 28°34' W 014°50'7 7.5
2017-Feb-01 01:33N 28°40' W 014°44'8 7.4
2017-Feb-01 00:30N 28°45' W 014°38'  
Track history (hours):
 
Tides and Currents Weather Stations Pressure Air Temp Water Temp Dewpoint Dewpoint Depression Visibility Wind Speed Wind Dir Waves Ship Positions

Amavisti

Last reported at 2017-Feb-08 21:32 UTC. Time now 2017-Feb-22 20:04 UTC.
Position N 14°40' W 017°23'.
Warning: this ship's position is 13 days out of date.

Length 116 m; draft 6 m.

Type: Cargo ship. MMSI: 305086000.

Date/timePositionNaut miles runAvg speedWind from/ knotsBaromVisibWave heightAir tempDewpointWater temp
2017-Feb-08 21:32N 14°40' W 017°23'2 1.7
2017-Feb-08 20:24N 14°40' W 017°25'0 0.0
2017-Feb-08 18:30N 14°40' W 017°25'0 0.0
2017-Feb-08 17:30N 14°40' W 017°25'0 0.0
2017-Feb-08 16:30N 14°40' W 017°25'0 0.0
2017-Feb-08 15:27N 14°40' W 017°25'0 0.0
2017-Feb-08 14:30N 14°40' W 017°25'0 0.0
2017-Feb-08 13:12N 14°40' W 017°25'0 0.0
2017-Feb-08 12:30N 14°40' W 017°25'0 0.0
2017-Feb-08 11:18N 14°40' W 017°25'0 0.0
2017-Feb-08 10:33N 14°40' W 017°25'0 0.0
2017-Feb-08 09:33N 14°40' W 017°25'0 0.0
2017-Feb-08 08:33N 14°40' W 017°25'0 0.0
2017-Feb-08 07:30N 14°40' W 017°25'0 0.0
2017-Feb-08 06:33N 14°40' W 017°25'0 0.0
2017-Feb-08 05:30N 14°40' W 017°25'0 0.0
2017-Feb-08 04:24N 14°40' W 017°25'0 0.0
2017-Feb-08 03:27N 14°40' W 017°25'0 0.0
2017-Feb-08 02:27N 14°40' W 017°25'0 0.0
2017-Feb-08 00:18N 14°40' W 017°25'0 0.0
2017-Feb-07 23:30N 14°40' W 017°25'0 0.0
2017-Feb-07 22:30N 14°40' W 017°25'0 0.0
2017-Feb-07 21:30N 14°40' W 017°25'0 0.0
2017-Feb-07 20:30N 14°40' W 017°25'0 0.0
2017-Feb-07 19:30N 14°40' W 017°25'0 0.0
2017-Feb-07 18:30N 14°40' W 017°25'0 0.0
2017-Feb-07 17:33N 14°40' W 017°25'0 0.0
2017-Feb-07 16:18N 14°40' W 017°25'0 0.0
2017-Feb-07 15:27N 14°40' W 017°25'0 0.0
2017-Feb-07 14:33N 14°40' W 017°25'0 0.0
2017-Feb-07 13:33N 14°40' W 017°25'0 0.0
2017-Feb-07 12:33N 14°40' W 017°25'0 0.0
2017-Feb-07 11:24N 14°40' W 017°25'0 0.0
2017-Feb-07 10:27N 14°40' W 017°25'0 0.0
2017-Feb-07 05:30N 14°40' W 017°25'0 0.0
2017-Feb-07 03:18N 14°40' W 017°25'0 0.0
2017-Feb-06 22:24N 14°40' W 017°25'0 0.0
2017-Feb-06 19:24N 14°40' W 017°25'0 0.0
2017-Feb-06 18:24N 14°40' W 017°25'0 0.0
2017-Feb-06 17:30N 14°40' W 017°25'0 0.0
2017-Feb-06 16:30N 14°40' W 017°25'0 0.0
2017-Feb-06 15:30N 14°40' W 017°25'0 0.0
2017-Feb-06 14:30N 14°40' W 017°25'0 0.0
2017-Feb-06 13:33N 14°40' W 017°25'0 0.0
2017-Feb-06 12:30N 14°40' W 017°25'0 0.0
2017-Feb-06 11:30N 14°40' W 017°25'0 0.0
2017-Feb-06 10:33N 14°40' W 017°25'0 0.0
2017-Feb-06 09:33N 14°40' W 017°25'0 0.0
2017-Feb-06 08:30N 14°40' W 017°25'0 0.0
2017-Feb-06 01:12N 14°40' W 017°25'0 0.0
2017-Feb-06 00:15N 14°40' W 017°25'0 0.0
2017-Feb-05 23:30N 14°40' W 017°25'0 0.0
2017-Feb-05 19:18N 14°40' W 017°25'0 0.0
2017-Feb-05 18:24N 14°40' W 017°25'0 0.0
2017-Feb-05 17:33N 14°40' W 017°25'0 0.0
2017-Feb-05 16:33N 14°40' W 017°25'0 0.0
2017-Feb-05 15:24N 14°40' W 017°25'0 0.0
2017-Feb-05 14:30N 14°40' W 017°25'0 0.0
2017-Feb-05 13:24N 14°40' W 017°25'0 0.0
2017-Feb-05 12:30N 14°40' W 017°25'0 0.0
2017-Feb-05 10:32N 14°40' W 017°25'4 2.8
2017-Feb-05 09:14N 14°37' W 017°25'22 7.3
2017-Feb-05 06:17N 14°56' W 017°35'  
2017-Feb-01 21:25N 27°49' W 015°20'910.2
2017-Feb-01 20:33N 27°57' W 015°19'10 9.9
2017-Feb-01 19:33N 28°06' W 015°23'3 2.7
2017-Feb-01 18:33N 28°08' W 015°25'0 0.0
2017-Feb-01 17:33N 28°08' W 015°25'0 0.0
2017-Feb-01 16:33N 28°08' W 015°25'0 0.0
2017-Feb-01 15:33N 28°08' W 015°25'0 0.0
2017-Feb-01 14:24N 28°08' W 015°25'0 0.0
2017-Feb-01 12:24N 28°08' W 015°25'0 0.0
2017-Feb-01 11:27N 28°08' W 015°25'0 0.0
2017-Feb-01 10:27N 28°08' W 015°25'0 0.0
2017-Feb-01 09:27N 28°08' W 015°25'0 0.1
2017-Feb-01 08:33N 28°08' W 015°25'4 4.1
2017-Feb-01 07:33N 28°09' W 015°21'7 7.5
2017-Feb-01 06:33N 28°14' W 015°15'7 7.3
2017-Feb-01 05:33N 28°19' W 015°08'7 7.4
2017-Feb-01 04:33N 28°25' W 015°03'7 7.3
2017-Feb-01 03:33N 28°30' W 014°57'7 7.4
2017-Feb-01 02:33N 28°34' W 014°50'7 7.5
2017-Feb-01 01:33N 28°40' W 014°44'8 7.4
2017-Feb-01 00:30N 28°45' W 014°38'  

Dump ship's entire track history